sensor_id;sensor_type;location;lat;lon;timestamp;temperature;humidity
49238;DHT22;35069;47.906;1.892;2022-11-15T00:01:39;10.20;99.90
49238;DHT22;35069;47.906;1.892;2022-11-15T00:04:06;10.30;99.90
49238;DHT22;35069;47.906;1.892;2022-11-15T00:06:32;10.30;99.90
49238;DHT22;35069;47.906;1.892;2022-11-15T00:08:58;10.30;99.90
49238;DHT22;35069;47.906;1.892;2022-11-15T00:11:24;10.30;99.90
49238;DHT22;35069;47.906;1.892;2022-11-15T00:13:49;10.30;99.90
49238;DHT22;35069;47.906;1.892;2022-11-15T00:16:15;10.40;99.90
49238;DHT22;35069;47.906;1.892;2022-11-15T00:18:41;10.30;99.90
49238;DHT22;35069;47.906;1.892;2022-11-15T00:21:11;10.30;99.90
49238;DHT22;35069;47.906;1.892;2022-11-15T00:23:37;10.30;99.90
49238;DHT22;35069;47.906;1.892;2022-11-15T00:26:03;10.30;99.90
49238;DHT22;35069;47.906;1.892;2022-11-15T00:28:29;10.40;99.90
49238;DHT22;35069;47.906;1.892;2022-11-15T00:31:03;10.40;99.90
49238;DHT22;35069;47.906;1.892;2022-11-15T00:33:29;10.40;99.90
49238;DHT22;35069;47.906;1.892;2022-11-15T00:36:03;10.40;99.90
49238;DHT22;35069;47.906;1.892;2022-11-15T00:38:37;10.30;99.90
49238;DHT22;35069;47.906;1.892;2022-11-15T00:41:04;10.40;99.90
49238;DHT22;35069;47.906;1.892;2022-11-15T00:43:30;10.40;99.90
49238;DHT22;35069;47.906;1.892;2022-11-15T00:45:56;10.40;99.90
49238;DHT22;35069;47.906;1.892;2022-11-15T00:48:21;10.40;99.90
49238;DHT22;35069;47.906;1.892;2022-11-15T00:50:48;10.40;99.90
49238;DHT22;35069;47.906;1.892;2022-11-15T00:53:14;10.40;99.90
49238;DHT22;35069;47.906;1.892;2022-11-15T00:55:40;10.40;99.90
49238;DHT22;35069;47.906;1.892;2022-11-15T00:58:06;10.40;99.90
49238;DHT22;35069;47.906;1.892;2022-11-15T01:00:31;10.40;99.90
49238;DHT22;35069;47.906;1.892;2022-11-15T01:02:57;10.40;99.90
49238;DHT22;35069;47.906;1.892;2022-11-15T01:05:23;10.40;99.90
49238;DHT22;35069;47.906;1.892;2022-11-15T01:07:52;10.50;99.90
49238;DHT22;35069;47.906;1.892;2022-11-15T01:10:18;10.50;99.90
49238;DHT22;35069;47.906;1.892;2022-11-15T01:12:44;10.50;99.90
49238;DHT22;35069;47.906;1.892;2022-11-15T01:15:10;10.50;99.90
49238;DHT22;35069;47.906;1.892;2022-11-15T01:17:35;10.50;99.90
49238;DHT22;35069;47.906;1.892;2022-11-15T01:20:01;10.40;99.90
49238;DHT22;35069;47.906;1.892;2022-11-15T01:22:27;10.40;99.90
49238;DHT22;35069;47.906;1.892;2022-11-15T01:24:52;10.40;99.90
49238;DHT22;35069;47.906;1.892;2022-11-15T01:27:18;10.50;99.90
49238;DHT22;35069;47.906;1.892;2022-11-15T01:29:43;10.50;99.90
49238;DHT22;35069;47.906;1.892;2022-11-15T01:32:09;10.50;99.90
49238;DHT22;35069;47.906;1.892;2022-11-15T01:34:35;10.50;99.90
49238;DHT22;35069;47.906;1.892;2022-11-15T01:37:00;10.50;99.90
49238;DHT22;35069;47.906;1.892;2022-11-15T01:39:26;10.50;99.90
49238;DHT22;35069;47.906;1.892;2022-11-15T01:41:52;10.50;99.90
49238;DHT22;35069;47.906;1.892;2022-11-15T01:47:05;10.50;99.90
49238;DHT22;35069;47.906;1.892;2022-11-15T01:49:35;10.40;99.90
49238;DHT22;35069;47.906;1.892;2022-11-15T01:52:03;10.50;99.90
49238;DHT22;35069;47.906;1.892;2022-11-15T01:54:29;10.50;99.90
49238;DHT22;35069;47.906;1.892;2022-11-15T01:57:07;10.50;99.90
49238;DHT22;35069;47.906;1.892;2022-11-15T01:59:35;10.40;99.90
49238;DHT22;35069;47.906;1.892;2022-11-15T02:02:01;10.40;99.90
49238;DHT22;35069;47.906;1.892;2022-11-15T02:04:29;10.40;99.90
49238;DHT22;35069;47.906;1.892;2022-11-15T02:06:56;10.40;99.90
49238;DHT22;35069;47.906;1.892;2022-11-15T02:09:22;10.40;99.90
49238;DHT22;35069;47.906;1.892;2022-11-15T02:11:49;10.40;99.90
49238;DHT22;35069;47.906;1.892;2022-11-15T02:14:17;10.40;99.90
49238;DHT22;35069;47.906;1.892;2022-11-15T02:16:53;10.30;99.90
49238;DHT22;35069;47.906;1.892;2022-11-15T02:25:36;10.30;99.90
49238;DHT22;35069;47.906;1.892;2022-11-15T02:28:20;10.30;99.90
49238;DHT22;35069;47.906;1.892;2022-11-15T02:33:53;10.30;99.90
49238;DHT22;35069;47.906;1.892;2022-11-15T02:36:40;10.30;99.90
49238;DHT22;35069;47.906;1.892;2022-11-15T02:42:13;10.30;99.90
49238;DHT22;35069;47.906;1.892;2022-11-15T02:45:03;10.30;99.90
49238;DHT22;35069;47.906;1.892;2022-11-15T02:47:34;10.30;99.90
49238;DHT22;35069;47.906;1.892;2022-11-15T02:50:09;10.30;99.90
49238;DHT22;35069;47.906;1.892;2022-11-15T02:52:35;10.30;99.90
49238;DHT22;35069;47.906;1.892;2022-11-15T02:55:02;10.20;99.90
49238;DHT22;35069;47.906;1.892;2022-11-15T03:02:59;10.30;99.90
49238;DHT22;35069;47.906;1.892;2022-11-15T03:05:41;10.30;99.90
49238;DHT22;35069;47.906;1.892;2022-11-15T03:11:00;10.30;99.90
49238;DHT22;35069;47.906;1.892;2022-11-15T03:13:30;10.30;99.90
49238;DHT22;35069;47.906;1.892;2022-11-15T03:18:57;10.20;99.90
49238;DHT22;35069;47.906;1.892;2022-11-15T03:21:24;10.20;99.90
49238;DHT22;35069;47.906;1.892;2022-11-15T03:23:54;10.20;99.90
49238;DHT22;35069;47.906;1.892;2022-11-15T03:26:22;10.20;99.90
49238;DHT22;35069;47.906;1.892;2022-11-15T03:29:03;10.20;99.90
49238;DHT22;35069;47.906;1.892;2022-11-15T03:31:33;10.20;99.90
49238;DHT22;35069;47.906;1.892;2022-11-15T03:34:38;10.20;99.90
49238;DHT22;35069;47.906;1.892;2022-11-15T03:37:05;10.10;99.90
49238;DHT22;35069;47.906;1.892;2022-11-15T03:39:32;10.10;99.90
49238;DHT22;35069;47.906;1.892;2022-11-15T03:44:45;10.10;99.90
49238;DHT22;35069;47.906;1.892;2022-11-15T03:47:28;10.10;99.90
49238;DHT22;35069;47.906;1.892;2022-11-15T03:50:11;10.10;99.90
49238;DHT22;35069;47.906;1.892;2022-11-15T03:52:39;10.20;99.90
49238;DHT22;35069;47.906;1.892;2022-11-15T03:55:08;10.20;99.90
49238;DHT22;35069;47.906;1.892;2022-11-15T03:57:34;10.10;99.90
49238;DHT22;35069;47.906;1.892;2022-11-15T03:59:59;10.10;99.90
49238;DHT22;35069;47.906;1.892;2022-11-15T04:02:25;10.10;99.90
49238;DHT22;35069;47.906;1.892;2022-11-15T04:04:50;10.10;99.90
49238;DHT22;35069;47.906;1.892;2022-11-15T04:07:16;10.10;99.90
49238;DHT22;35069;47.906;1.892;2022-11-15T04:09:41;10.10;99.90
49238;DHT22;35069;47.906;1.892;2022-11-15T04:12:26;10.10;99.90
49238;DHT22;35069;47.906;1.892;2022-11-15T04:17:50;10.10;99.90
49238;DHT22;35069;47.906;1.892;2022-11-15T04:23:05;10.20;99.90
49238;DHT22;35069;47.906;1.892;2022-11-15T04:25:51;10.20;99.90
49238;DHT22;35069;47.906;1.892;2022-11-15T04:28:17;10.20;99.90
49238;DHT22;35069;47.906;1.892;2022-11-15T04:30:43;10.20;99.90
49238;DHT22;35069;47.906;1.892;2022-11-15T04:33:09;10.20;99.90
49238;DHT22;35069;47.906;1.892;2022-11-15T04:35:34;10.20;99.90
49238;DHT22;35069;47.906;1.892;2022-11-15T04:38:01;10.20;99.90
49238;DHT22;35069;47.906;1.892;2022-11-15T04:40:27;10.20;99.90
49238;DHT22;35069;47.906;1.892;2022-11-15T04:42:52;10.20;99.90
49238;DHT22;35069;47.906;1.892;2022-11-15T04:45:18;10.10;99.90
49238;DHT22;35069;47.906;1.892;2022-11-15T04:47:44;10.10;99.90
49238;DHT22;35069;47.906;1.892;2022-11-15T04:50:11;10.10;99.90
49238;DHT22;35069;47.906;1.892;2022-11-15T04:52:40;10.10;99.90
49238;DHT22;35069;47.906;1.892;2022-11-15T04:55:06;10.10;99.90
49238;DHT22;35069;47.906;1.892;2022-11-15T04:57:32;10.10;99.90
49238;DHT22;35069;47.906;1.892;2022-11-15T04:59:58;10.10;99.90
49238;DHT22;35069;47.906;1.892;2022-11-15T05:02:23;10.10;99.90
49238;DHT22;35069;47.906;1.892;2022-11-15T05:04:49;10.10;99.90
49238;DHT22;35069;47.906;1.892;2022-11-15T05:07:14;10.20;99.90
49238;DHT22;35069;47.906;1.892;2022-11-15T05:09:40;10.10;99.90
49238;DHT22;35069;47.906;1.892;2022-11-15T05:12:05;10.20;99.90
49238;DHT22;35069;47.906;1.892;2022-11-15T05:14:31;10.10;99.90
49238;DHT22;35069;47.906;1.892;2022-11-15T05:16:56;10.10;99.90
49238;DHT22;35069;47.906;1.892;2022-11-15T05:19:22;10.10;99.90
49238;DHT22;35069;47.906;1.892;2022-11-15T05:21:48;10.10;99.90
49238;DHT22;35069;47.906;1.892;2022-11-15T05:24:14;10.20;99.90
49238;DHT22;35069;47.906;1.892;2022-11-15T05:26:39;10.20;99.90
49238;DHT22;35069;47.906;1.892;2022-11-15T05:29:05;10.10;99.90
49238;DHT22;35069;47.906;1.892;2022-11-15T05:31:30;10.20;99.90
49238;DHT22;35069;47.906;1.892;2022-11-15T05:34:04;10.20;99.90
49238;DHT22;35069;47.906;1.892;2022-11-15T05:36:38;10.20;99.90
49238;DHT22;35069;47.906;1.892;2022-11-15T05:39:07;10.20;99.90
49238;DHT22;35069;47.906;1.892;2022-11-15T05:41:42;10.30;99.90
49238;DHT22;35069;47.906;1.892;2022-11-15T05:44:11;10.30;99.90
49238;DHT22;35069;47.906;1.892;2022-11-15T05:46:39;10.30;99.90
49238;DHT22;35069;47.906;1.892;2022-11-15T05:49:06;10.30;99.90
49238;DHT22;35069;47.906;1.892;2022-11-15T05:51:33;10.30;99.90
49238;DHT22;35069;47.906;1.892;2022-11-15T05:54:00;10.30;99.90
49238;DHT22;35069;47.906;1.892;2022-11-15T05:56:26;10.30;99.90
49238;DHT22;35069;47.906;1.892;2022-11-15T05:58:54;10.30;99.90
49238;DHT22;35069;47.906;1.892;2022-11-15T06:01:21;10.40;99.90
49238;DHT22;35069;47.906;1.892;2022-11-15T06:03:46;10.40;99.90
49238;DHT22;35069;47.906;1.892;2022-11-15T06:06:12;10.40;99.90
49238;DHT22;35069;47.906;1.892;2022-11-15T06:08:37;10.40;99.90
49238;DHT22;35069;47.906;1.892;2022-11-15T06:11:05;10.40;99.90
49238;DHT22;35069;47.906;1.892;2022-11-15T06:13:30;10.40;99.90
49238;DHT22;35069;47.906;1.892;2022-11-15T06:15:56;10.40;99.90
49238;DHT22;35069;47.906;1.892;2022-11-15T06:18:22;10.50;99.90
49238;DHT22;35069;47.906;1.892;2022-11-15T06:20:47;10.40;99.90
49238;DHT22;35069;47.906;1.892;2022-11-15T06:23:13;10.50;99.90
49238;DHT22;35069;47.906;1.892;2022-11-15T06:25:39;10.40;99.90
49238;DHT22;35069;47.906;1.892;2022-11-15T06:28:04;10.50;99.90
49238;DHT22;35069;47.906;1.892;2022-11-15T06:30:30;10.40;99.90
49238;DHT22;35069;47.906;1.892;2022-11-15T06:33:00;10.40;99.90
49238;DHT22;35069;47.906;1.892;2022-11-15T06:35:27;10.40;99.90
49238;DHT22;35069;47.906;1.892;2022-11-15T06:37:52;10.40;99.90
49238;DHT22;35069;47.906;1.892;2022-11-15T06:40:18;10.40;99.90
49238;DHT22;35069;47.906;1.892;2022-11-15T06:42:44;10.50;99.90
49238;DHT22;35069;47.906;1.892;2022-11-15T06:45:09;10.50;99.90
49238;DHT22;35069;47.906;1.892;2022-11-15T06:47:35;10.50;99.90
49238;DHT22;35069;47.906;1.892;2022-11-15T06:50:00;10.50;99.90
49238;DHT22;35069;47.906;1.892;2022-11-15T06:52:26;10.50;99.90
49238;DHT22;35069;47.906;1.892;2022-11-15T06:54:57;10.50;99.90
49238;DHT22;35069;47.906;1.892;2022-11-15T06:57:23;10.50;99.90
49238;DHT22;35069;47.906;1.892;2022-11-15T06:59:48;10.50;99.90
49238;DHT22;35069;47.906;1.892;2022-11-15T07:02:14;10.50;99.90
49238;DHT22;35069;47.906;1.892;2022-11-15T07:04:40;10.60;99.90
49238;DHT22;35069;47.906;1.892;2022-11-15T07:07:05;10.60;99.90
49238;DHT22;35069;47.906;1.892;2022-11-15T07:09:31;10.60;99.90
49238;DHT22;35069;47.906;1.892;2022-11-15T07:11:56;10.60;99.90
49238;DHT22;35069;47.906;1.892;2022-11-15T07:14:22;10.60;99.90
49238;DHT22;35069;47.906;1.892;2022-11-15T07:16:47;10.60;99.90
49238;DHT22;35069;47.906;1.892;2022-11-15T07:19:13;10.70;99.90
49238;DHT22;35069;47.906;1.892;2022-11-15T07:21:39;10.70;99.90
49238;DHT22;35069;47.906;1.892;2022-11-15T07:24:04;10.70;99.90
49238;DHT22;35069;47.906;1.892;2022-11-15T07:26:30;10.80;99.90
49238;DHT22;35069;47.906;1.892;2022-11-15T07:28:56;10.80;99.90
49238;DHT22;35069;47.906;1.892;2022-11-15T07:31:21;10.80;99.90
49238;DHT22;35069;47.906;1.892;2022-11-15T07:33:47;10.80;99.90
49238;DHT22;35069;47.906;1.892;2022-11-15T07:36:13;10.90;99.90
49238;DHT22;35069;47.906;1.892;2022-11-15T07:38:38;10.90;99.90
49238;DHT22;35069;47.906;1.892;2022-11-15T07:41:05;10.90;99.90
49238;DHT22;35069;47.906;1.892;2022-11-15T07:43:31;10.90;99.90
49238;DHT22;35069;47.906;1.892;2022-11-15T07:45:59;11.00;99.90
49238;DHT22;35069;47.906;1.892;2022-11-15T07:48:24;11.00;99.90
49238;DHT22;35069;47.906;1.892;2022-11-15T07:50:50;11.00;99.90
49238;DHT22;35069;47.906;1.892;2022-11-15T07:53:15;11.00;99.90
49238;DHT22;35069;47.906;1.892;2022-11-15T07:55:41;11.10;99.90
49238;DHT22;35069;47.906;1.892;2022-11-15T07:58:09;11.20;99.90
49238;DHT22;35069;47.906;1.892;2022-11-15T08:00:36;11.20;99.90
49238;DHT22;35069;47.906;1.892;2022-11-15T08:03:07;11.30;99.90
49238;DHT22;35069;47.906;1.892;2022-11-15T08:05:34;11.30;99.90
49238;DHT22;35069;47.906;1.892;2022-11-15T08:07:59;11.50;99.90
49238;DHT22;35069;47.906;1.892;2022-11-15T08:10:26;11.60;99.90
49238;DHT22;35069;47.906;1.892;2022-11-15T08:15:25;11.80;99.90
49238;DHT22;35069;47.906;1.892;2022-11-15T08:17:56;11.70;99.90
49238;DHT22;35069;47.906;1.892;2022-11-15T08:20:22;11.70;99.90
49238;DHT22;35069;47.906;1.892;2022-11-15T08:22:48;11.70;99.90
49238;DHT22;35069;47.906;1.892;2022-11-15T08:25:14;11.60;99.90
49238;DHT22;35069;47.906;1.892;2022-11-15T08:27:39;11.60;99.90
49238;DHT22;35069;47.906;1.892;2022-11-15T08:30:05;11.60;99.90
49238;DHT22;35069;47.906;1.892;2022-11-15T08:32:31;11.50;99.90
49238;DHT22;35069;47.906;1.892;2022-11-15T08:34:57;11.50;99.90
49238;DHT22;35069;47.906;1.892;2022-11-15T08:37:23;11.60;99.90
49238;DHT22;35069;47.906;1.892;2022-11-15T08:39:48;11.60;99.90
49238;DHT22;35069;47.906;1.892;2022-11-15T08:42:14;11.60;99.90
49238;DHT22;35069;47.906;1.892;2022-11-15T08:44:41;11.60;99.90
49238;DHT22;35069;47.906;1.892;2022-11-15T08:47:08;11.50;99.90
49238;DHT22;35069;47.906;1.892;2022-11-15T08:49:35;11.50;99.90
49238;DHT22;35069;47.906;1.892;2022-11-15T08:52:01;11.60;99.90
49238;DHT22;35069;47.906;1.892;2022-11-15T08:54:27;11.60;99.90
49238;DHT22;35069;47.906;1.892;2022-11-15T08:56:52;11.60;99.90
49238;DHT22;35069;47.906;1.892;2022-11-15T08:59:18;11.60;99.90
49238;DHT22;35069;47.906;1.892;2022-11-15T09:01:43;11.60;99.90
49238;DHT22;35069;47.906;1.892;2022-11-15T09:04:09;11.60;99.90
49238;DHT22;35069;47.906;1.892;2022-11-15T09:06:34;11.60;99.90
49238;DHT22;35069;47.906;1.892;2022-11-15T09:09:01;11.60;99.90
49238;DHT22;35069;47.906;1.892;2022-11-15T09:11:27;11.70;99.90
49238;DHT22;35069;47.906;1.892;2022-11-15T09:13:53;11.70;99.90
49238;DHT22;35069;47.906;1.892;2022-11-15T09:16:19;11.70;99.90
49238;DHT22;35069;47.906;1.892;2022-11-15T09:18:45;11.70;99.90
49238;DHT22;35069;47.906;1.892;2022-11-15T09:21:10;11.80;99.90
49238;DHT22;35069;47.906;1.892;2022-11-15T09:23:37;11.80;99.90
49238;DHT22;35069;47.906;1.892;2022-11-15T09:26:04;11.80;99.90
49238;DHT22;35069;47.906;1.892;2022-11-15T09:28:30;11.80;99.90
49238;DHT22;35069;47.906;1.892;2022-11-15T09:30:58;11.80;99.90
49238;DHT22;35069;47.906;1.892;2022-11-15T09:33:24;11.90;99.90
49238;DHT22;35069;47.906;1.892;2022-11-15T09:35:49;11.90;99.90
49238;DHT22;35069;47.906;1.892;2022-11-15T09:38:15;11.90;99.90
49238;DHT22;35069;47.906;1.892;2022-11-15T09:40:41;11.80;99.90
49238;DHT22;35069;47.906;1.892;2022-11-15T09:43:27;11.80;99.90
49238;DHT22;35069;47.906;1.892;2022-11-15T09:46:01;11.80;99.90
49238;DHT22;35069;47.906;1.892;2022-11-15T09:48:38;11.80;99.90
49238;DHT22;35069;47.906;1.892;2022-11-15T09:51:09;11.90;99.90
49238;DHT22;35069;47.906;1.892;2022-11-15T09:54:00;11.90;99.90
49238;DHT22;35069;47.906;1.892;2022-11-15T09:56:28;11.90;99.90
49238;DHT22;35069;47.906;1.892;2022-11-15T10:01:56;11.90;99.90
49238;DHT22;35069;47.906;1.892;2022-11-15T10:04:25;11.90;99.90
49238;DHT22;35069;47.906;1.892;2022-11-15T10:07:01;11.90;99.90
49238;DHT22;35069;47.906;1.892;2022-11-15T10:12:30;11.90;99.90
49238;DHT22;35069;47.906;1.892;2022-11-15T10:15:05;11.90;99.90
49238;DHT22;35069;47.906;1.892;2022-11-15T10:22:48;11.90;99.90
49238;DHT22;35069;47.906;1.892;2022-11-15T10:25:27;11.90;99.90
49238;DHT22;35069;47.906;1.892;2022-11-15T10:30:46;11.80;99.90
49238;DHT22;35069;47.906;1.892;2022-11-15T10:36:19;11.80;99.90
49238;DHT22;35069;47.906;1.892;2022-11-15T10:46:34;11.80;99.90
49238;DHT22;35069;47.906;1.892;2022-11-15T10:51:46;11.90;99.90
49238;DHT22;35069;47.906;1.892;2022-11-15T10:54:25;11.90;99.90
49238;DHT22;35069;47.906;1.892;2022-11-15T10:56:57;12.00;99.90
49238;DHT22;35069;47.906;1.892;2022-11-15T10:59:30;12.00;99.90
49238;DHT22;35069;47.906;1.892;2022-11-15T11:01:57;12.00;99.90
49238;DHT22;35069;47.906;1.892;2022-11-15T11:04:23;12.10;99.90
49238;DHT22;35069;47.906;1.892;2022-11-15T11:06:55;12.20;99.90
49238;DHT22;35069;47.906;1.892;2022-11-15T11:09:35;12.40;99.90
49238;DHT22;35069;47.906;1.892;2022-11-15T11:12:03;12.60;99.90
49238;DHT22;35069;47.906;1.892;2022-11-15T11:14:34;12.80;99.90
49238;DHT22;35069;47.906;1.892;2022-11-15T11:25:36;13.00;99.90
49238;DHT22;35069;47.906;1.892;2022-11-15T11:33:50;12.90;99.90
49238;DHT22;35069;47.906;1.892;2022-11-15T11:46:01;13.10;99.90
49238;DHT22;35069;47.906;1.892;2022-11-15T11:48:52;13.10;99.90
49238;DHT22;35069;47.906;1.892;2022-11-15T11:53:54;13.00;99.90
49238;DHT22;35069;47.906;1.892;2022-11-15T11:58:50;13.10;99.90
49238;DHT22;35069;47.906;1.892;2022-11-15T12:01:23;13.10;99.90
49238;DHT22;35069;47.906;1.892;2022-11-15T12:03:59;13.10;99.90
49238;DHT22;35069;47.906;1.892;2022-11-15T12:06:36;13.10;99.90
49238;DHT22;35069;47.906;1.892;2022-11-15T12:12:01;13.00;99.90
49238;DHT22;35069;47.906;1.892;2022-11-15T12:14:44;13.00;99.90
49238;DHT22;35069;47.906;1.892;2022-11-15T12:17:11;13.00;99.90
49238;DHT22;35069;47.906;1.892;2022-11-15T12:19:38;13.00;99.90
49238;DHT22;35069;47.906;1.892;2022-11-15T12:22:21;12.90;99.90
49238;DHT22;35069;47.906;1.892;2022-11-15T12:24:58;12.90;99.90
49238;DHT22;35069;47.906;1.892;2022-11-15T12:27:56;12.80;99.90
49238;DHT22;35069;47.906;1.892;2022-11-15T12:30:23;12.80;99.90
49238;DHT22;35069;47.906;1.892;2022-11-15T12:32:57;12.90;99.90
49238;DHT22;35069;47.906;1.892;2022-11-15T12:35:39;12.90;99.90
49238;DHT22;35069;47.906;1.892;2022-11-15T12:38:09;12.80;99.90
49238;DHT22;35069;47.906;1.892;2022-11-15T12:40:38;12.80;99.90
49238;DHT22;35069;47.906;1.892;2022-11-15T12:45:38;12.90;99.90
49238;DHT22;35069;47.906;1.892;2022-11-15T13:01:07;13.00;99.90
49238;DHT22;35069;47.906;1.892;2022-11-15T13:03:33;13.00;99.90
49238;DHT22;35069;47.906;1.892;2022-11-15T13:06:03;13.10;99.90
49238;DHT22;35069;47.906;1.892;2022-11-15T13:08:43;13.20;99.90
49238;DHT22;35069;47.906;1.892;2022-11-15T13:11:44;13.30;99.90
49238;DHT22;35069;47.906;1.892;2022-11-15T13:17:16;13.30;99.90
49238;DHT22;35069;47.906;1.892;2022-11-15T13:19:43;13.30;99.90
49238;DHT22;35069;47.906;1.892;2022-11-15T13:22:11;13.20;99.90
49238;DHT22;35069;47.906;1.892;2022-11-15T13:24:56;13.20;99.90
49238;DHT22;35069;47.906;1.892;2022-11-15T13:27:22;13.20;99.90
49238;DHT22;35069;47.906;1.892;2022-11-15T13:29:48;13.20;99.90
49238;DHT22;35069;47.906;1.892;2022-11-15T13:32:15;13.20;99.90
49238;DHT22;35069;47.906;1.892;2022-11-15T13:34:46;13.20;99.90
49238;DHT22;35069;47.906;1.892;2022-11-15T13:39:48;13.10;99.90
49238;DHT22;35069;47.906;1.892;2022-11-15T13:42:19;13.10;99.90
49238;DHT22;35069;47.906;1.892;2022-11-15T13:44:56;13.10;99.90
49238;DHT22;35069;47.906;1.892;2022-11-15T13:47:25;13.10;99.90
49238;DHT22;35069;47.906;1.892;2022-11-15T13:49:57;13.10;99.90
49238;DHT22;35069;47.906;1.892;2022-11-15T13:52:27;13.10;99.90
49238;DHT22;35069;47.906;1.892;2022-11-15T13:55:01;13.20;99.90
49238;DHT22;35069;47.906;1.892;2022-11-15T14:00:26;13.30;99.90
49238;DHT22;35069;47.906;1.892;2022-11-15T14:02:54;13.30;99.90
49238;DHT22;35069;47.906;1.892;2022-11-15T14:05:23;13.20;99.90
49238;DHT22;35069;47.906;1.892;2022-11-15T14:08:24;13.20;99.90
49238;DHT22;35069;47.906;1.892;2022-11-15T14:11:26;13.20;99.90
49238;DHT22;35069;47.906;1.892;2022-11-15T14:19:11;13.20;99.90
49238;DHT22;35069;47.906;1.892;2022-11-15T14:21:37;13.20;99.90
49238;DHT22;35069;47.906;1.892;2022-11-15T14:24:20;13.20;99.90
49238;DHT22;35069;47.906;1.892;2022-11-15T14:26:46;13.20;99.90
49238;DHT22;35069;47.906;1.892;2022-11-15T14:29:30;13.20;99.90
49238;DHT22;35069;47.906;1.892;2022-11-15T14:32:22;13.10;99.90
49238;DHT22;35069;47.906;1.892;2022-11-15T14:34:53;13.10;99.90
49238;DHT22;35069;47.906;1.892;2022-11-15T14:37:22;13.20;99.90
49238;DHT22;35069;47.906;1.892;2022-11-15T14:39:48;13.20;99.90
49238;DHT22;35069;47.906;1.892;2022-11-15T14:42:14;13.20;99.90
49238;DHT22;35069;47.906;1.892;2022-11-15T14:44:40;13.20;99.90
49238;DHT22;35069;47.906;1.892;2022-11-15T14:47:06;13.20;99.90
49238;DHT22;35069;47.906;1.892;2022-11-15T14:49:32;13.20;99.90
49238;DHT22;35069;47.906;1.892;2022-11-15T14:51:57;13.20;99.90
49238;DHT22;35069;47.906;1.892;2022-11-15T14:54:23;13.20;99.90
49238;DHT22;35069;47.906;1.892;2022-11-15T14:56:48;13.20;99.90
49238;DHT22;35069;47.906;1.892;2022-11-15T14:59:14;13.30;99.90
49238;DHT22;35069;47.906;1.892;2022-11-15T15:01:39;13.20;99.90
49238;DHT22;35069;47.906;1.892;2022-11-15T15:04:05;13.20;99.90
49238;DHT22;35069;47.906;1.892;2022-11-15T15:06:31;13.30;99.90
49238;DHT22;35069;47.906;1.892;2022-11-15T15:08:56;13.20;99.90
49238;DHT22;35069;47.906;1.892;2022-11-15T15:11:27;13.30;99.90
49238;DHT22;35069;47.906;1.892;2022-11-15T15:13:53;13.20;99.90
49238;DHT22;35069;47.906;1.892;2022-11-15T15:16:23;13.30;99.90
49238;DHT22;35069;47.906;1.892;2022-11-15T15:18:49;13.30;99.90
49238;DHT22;35069;47.906;1.892;2022-11-15T15:21:23;13.30;99.90
49238;DHT22;35069;47.906;1.892;2022-11-15T15:23:50;13.30;99.90
49238;DHT22;35069;47.906;1.892;2022-11-15T15:26:15;13.30;99.90
49238;DHT22;35069;47.906;1.892;2022-11-15T15:28:41;13.30;99.90
49238;DHT22;35069;47.906;1.892;2022-11-15T15:31:11;13.30;99.90
49238;DHT22;35069;47.906;1.892;2022-11-15T15:33:37;13.30;99.90
49238;DHT22;35069;47.906;1.892;2022-11-15T15:36:03;13.30;99.90
49238;DHT22;35069;47.906;1.892;2022-11-15T15:38:28;13.40;99.90
49238;DHT22;35069;47.906;1.892;2022-11-15T15:40:54;13.30;99.90
49238;DHT22;35069;47.906;1.892;2022-11-15T15:43:20;13.30;99.90
49238;DHT22;35069;47.906;1.892;2022-11-15T15:45:46;13.30;99.90
49238;DHT22;35069;47.906;1.892;2022-11-15T15:48:13;13.30;99.90
49238;DHT22;35069;47.906;1.892;2022-11-15T15:50:39;13.30;99.90
49238;DHT22;35069;47.906;1.892;2022-11-15T15:53:05;13.30;99.90
49238;DHT22;35069;47.906;1.892;2022-11-15T15:55:31;13.30;99.90
49238;DHT22;35069;47.906;1.892;2022-11-15T15:57:57;13.30;99.90
49238;DHT22;35069;47.906;1.892;2022-11-15T16:00:24;13.30;99.90
49238;DHT22;35069;47.906;1.892;2022-11-15T16:02:51;13.30;99.90
49238;DHT22;35069;47.906;1.892;2022-11-15T16:05:17;13.30;99.90
49238;DHT22;35069;47.906;1.892;2022-11-15T16:07:43;13.30;99.90
49238;DHT22;35069;47.906;1.892;2022-11-15T16:10:29;13.30;99.90
49238;DHT22;35069;47.906;1.892;2022-11-15T16:12:57;13.30;99.90
49238;DHT22;35069;47.906;1.892;2022-11-15T16:15:24;13.30;99.90
49238;DHT22;35069;47.906;1.892;2022-11-15T16:17:59;13.30;99.90
49238;DHT22;35069;47.906;1.892;2022-11-15T16:22:56;13.30;99.90
49238;DHT22;35069;47.906;1.892;2022-11-15T16:25:22;13.30;99.90
49238;DHT22;35069;47.906;1.892;2022-11-15T16:27:48;13.30;99.90
49238;DHT22;35069;47.906;1.892;2022-11-15T16:30:15;13.30;99.90
49238;DHT22;35069;47.906;1.892;2022-11-15T16:32:41;13.30;99.90
49238;DHT22;35069;47.906;1.892;2022-11-15T16:35:14;13.30;99.90
49238;DHT22;35069;47.906;1.892;2022-11-15T16:37:41;13.30;99.90
49238;DHT22;35069;47.906;1.892;2022-11-15T16:40:30;13.30;99.90
49238;DHT22;35069;47.906;1.892;2022-11-15T16:42:57;13.30;99.90
49238;DHT22;35069;47.906;1.892;2022-11-15T16:45:23;13.30;99.90
49238;DHT22;35069;47.906;1.892;2022-11-15T16:47:49;13.30;99.90
49238;DHT22;35069;47.906;1.892;2022-11-15T16:50:21;13.30;99.90
49238;DHT22;35069;47.906;1.892;2022-11-15T16:52:54;13.30;99.90
49238;DHT22;35069;47.906;1.892;2022-11-15T16:55:22;13.30;99.90
49238;DHT22;35069;47.906;1.892;2022-11-15T16:57:48;13.30;99.90
49238;DHT22;35069;47.906;1.892;2022-11-15T17:00:17;13.30;99.90
49238;DHT22;35069;47.906;1.892;2022-11-15T17:02:47;13.30;99.90
49238;DHT22;35069;47.906;1.892;2022-11-15T17:05:14;13.30;99.90
49238;DHT22;35069;47.906;1.892;2022-11-15T17:07:40;13.30;99.90
49238;DHT22;35069;47.906;1.892;2022-11-15T17:10:08;13.30;99.90
49238;DHT22;35069;47.906;1.892;2022-11-15T17:12:35;13.30;99.90
49238;DHT22;35069;47.906;1.892;2022-11-15T17:15:01;13.30;99.90
49238;DHT22;35069;47.906;1.892;2022-11-15T17:17:27;13.30;99.90
49238;DHT22;35069;47.906;1.892;2022-11-15T17:19:53;13.30;99.90
49238;DHT22;35069;47.906;1.892;2022-11-15T17:22:19;13.30;99.90
49238;DHT22;35069;47.906;1.892;2022-11-15T17:24:45;13.20;99.90
49238;DHT22;35069;47.906;1.892;2022-11-15T17:27:10;13.20;99.90
49238;DHT22;35069;47.906;1.892;2022-11-15T17:29:36;13.20;99.90
49238;DHT22;35069;47.906;1.892;2022-11-15T17:32:02;13.20;99.90
49238;DHT22;35069;47.906;1.892;2022-11-15T17:34:27;13.20;99.90
49238;DHT22;35069;47.906;1.892;2022-11-15T17:36:53;13.20;99.90
49238;DHT22;35069;47.906;1.892;2022-11-15T17:39:19;13.20;99.90
49238;DHT22;35069;47.906;1.892;2022-11-15T17:41:45;13.20;99.90
49238;DHT22;35069;47.906;1.892;2022-11-15T17:44:11;13.20;99.90
49238;DHT22;35069;47.906;1.892;2022-11-15T17:46:37;13.30;99.90
49238;DHT22;35069;47.906;1.892;2022-11-15T17:49:02;13.20;99.90